createdAt,value
2022-12-01T00:01:02.900Z,14.55
2022-12-01T00:03:32.844Z,13.35
2022-12-01T00:06:01.407Z,14.63
2022-12-01T00:08:28.956Z,14.63
2022-12-01T00:11:03.910Z,15.70
2022-12-01T00:13:30.467Z,16.65
2022-12-01T00:15:56.920Z,14.45
2022-12-01T00:18:23.308Z,14.50
2022-12-01T00:20:55.851Z,14.45
2022-12-01T00:23:23.239Z,15.23
2022-12-01T00:25:49.649Z,14.63
2022-12-01T00:28:16.058Z,14.30
2022-12-01T00:30:42.537Z,15.55
2022-12-01T00:33:08.926Z,13.45
2022-12-01T00:35:35.304Z,13.93
2022-12-01T00:38:01.725Z,14.65
2022-12-01T00:40:28.127Z,14.68
2022-12-01T00:42:54.560Z,14.60
2022-12-01T00:45:21.040Z,14.95
2022-12-01T00:47:47.440Z,14.23
2022-12-01T00:50:13.874Z,14.05
2022-12-01T00:52:40.987Z,15.15
2022-12-01T00:55:07.675Z,14.50
2022-12-01T00:57:34.043Z,12.30
2022-12-01T01:00:00.509Z,13.32
2022-12-01T01:02:27.063Z,13.70
2022-12-01T01:04:53.625Z,13.32
2022-12-01T01:07:20.390Z,13.65
2022-12-01T01:09:47.161Z,14.00
2022-12-01T01:12:13.797Z,13.10
2022-12-01T01:14:40.242Z,13.80
2022-12-01T01:17:06.749Z,13.43
2022-12-01T01:19:33.478Z,13.50
2022-12-01T01:21:59.873Z,12.25
2022-12-01T01:24:26.326Z,12.68
2022-12-01T01:26:53.464Z,13.60
2022-12-01T01:29:19.870Z,12.90
2022-12-01T01:31:46.286Z,13.35
2022-12-01T01:34:12.749Z,13.32
2022-12-01T01:36:39.179Z,13.50
2022-12-01T01:39:05.661Z,14.25
2022-12-01T01:41:33.063Z,13.95
2022-12-01T01:44:04.154Z,13.65
2022-12-01T01:46:32.849Z,14.43
2022-12-01T01:49:13.741Z,12.77
2022-12-01T01:51:43.620Z,12.93
2022-12-01T01:54:21.915Z,13.07
2022-12-01T01:56:50.066Z,12.32
2022-12-01T01:59:27.166Z,13.80
2022-12-01T02:02:02.226Z,12.85
2022-12-01T02:06:55.521Z,13.82
2022-12-01T02:09:21.907Z,14.00
2022-12-01T02:12:22.313Z,14.00
2022-12-01T02:15:04.872Z,13.27
2022-12-01T02:17:41.934Z,14.75
2022-12-01T02:20:08.464Z,14.05
2022-12-01T02:22:59.587Z,14.57
2022-12-01T02:25:50.863Z,12.93
2022-12-01T02:28:26.280Z,13.50
2022-12-01T02:31:08.685Z,13.23
2022-12-01T02:33:42.727Z,13.38
2022-12-01T02:36:17.812Z,13.68
2022-12-01T02:41:33.277Z,13.07
2022-12-01T02:44:08.834Z,13.43
2022-12-01T02:47:02.531Z,14.63
2022-12-01T02:49:35.267Z,15.07
2022-12-01T02:52:04.737Z,12.65
2022-12-01T02:54:32.884Z,14.70
2022-12-01T02:56:59.552Z,13.82
2022-12-01T02:59:26.314Z,14.57
2022-12-01T03:02:32.188Z,14.68
2022-12-01T03:05:18.627Z,13.15
2022-12-01T03:08:06.089Z,12.52
2022-12-01T03:11:05.410Z,12.98
2022-12-01T03:14:10.854Z,13.75
2022-12-01T03:16:54.327Z,14.85
2022-12-01T03:19:26.971Z,11.65
2022-12-01T03:22:09.825Z,14.95
2022-12-01T03:24:38.302Z,14.02
2022-12-01T03:27:06.140Z,14.05
2022-12-01T03:29:36.608Z,13.20
2022-12-01T03:32:28.203Z,13.00
2022-12-01T03:34:58.756Z,13.52
2022-12-01T03:37:32.218Z,14.05
2022-12-01T03:40:01.274Z,12.60
2022-12-01T03:45:03.760Z,13.15
2022-12-01T03:47:32.454Z,13.88
2022-12-01T03:50:00.319Z,13.43
2022-12-01T03:52:40.978Z,13.15
2022-12-01T03:55:26.392Z,13.57
2022-12-01T03:58:06.350Z,13.15
2022-12-01T04:00:33.397Z,13.38
2022-12-01T04:03:03.732Z,14.10
2022-12-01T04:05:32.475Z,14.30
2022-12-01T04:07:59.575Z,14.25
2022-12-01T04:10:26.236Z,14.77
2022-12-01T04:12:58.885Z,14.38
2022-12-01T04:15:26.497Z,14.05
2022-12-01T04:17:53.098Z,14.15
2022-12-01T04:20:19.604Z,14.00
2022-12-01T04:22:46.038Z,13.82
2022-12-01T04:25:12.576Z,14.63
2022-12-01T04:27:39.295Z,14.82
2022-12-01T04:30:07.289Z,14.63
2022-12-01T04:32:38.738Z,13.10
2022-12-01T04:35:06.461Z,13.05
2022-12-01T04:37:33.331Z,14.38
2022-12-01T04:39:59.813Z,15.15
2022-12-01T04:42:26.299Z,13.00
2022-12-01T04:44:52.742Z,15.10
2022-12-01T04:47:19.188Z,14.40
2022-12-01T04:49:45.624Z,13.25
2022-12-01T04:52:12.056Z,15.40
2022-12-01T04:54:42.362Z,14.15
2022-12-01T04:57:08.880Z,14.18
2022-12-01T04:59:35.336Z,14.90
2022-12-01T05:02:03.927Z,14.15
2022-12-01T05:04:31.426Z,13.70
2022-12-01T05:06:57.919Z,13.65
2022-12-01T05:09:24.510Z,15.32
2022-12-01T05:11:50.955Z,13.77
2022-12-01T05:14:17.335Z,13.60
2022-12-01T05:16:43.852Z,13.07
2022-12-01T05:19:28.791Z,13.27
2022-12-01T05:21:55.230Z,13.50
2022-12-01T05:24:22.181Z,14.68
2022-12-01T05:26:48.900Z,13.18
2022-12-01T05:29:15.362Z,14.82
2022-12-01T05:31:41.978Z,14.35
2022-12-01T05:34:08.723Z,15.32
2022-12-01T05:36:35.405Z,14.98
2022-12-01T05:39:02.008Z,14.32
2022-12-01T05:41:28.559Z,14.50
2022-12-01T05:43:55.092Z,14.18
2022-12-01T05:46:21.543Z,14.65
2022-12-01T05:48:48.196Z,13.45
2022-12-01T05:51:16.659Z,14.57
2022-12-01T05:53:43.250Z,14.52
2022-12-01T05:56:09.838Z,13.90
2022-12-01T05:58:36.924Z,13.82
2022-12-01T06:01:04.166Z,15.23
2022-12-01T06:03:30.618Z,13.73
2022-12-01T06:05:57.180Z,14.63
2022-12-01T06:08:23.627Z,15.15
2022-12-01T06:10:50.416Z,13.30
2022-12-01T06:13:16.976Z,14.45
2022-12-01T06:15:43.474Z,13.27
2022-12-01T06:18:09.923Z,13.43
2022-12-01T06:20:36.350Z,13.57
2022-12-01T06:23:03.071Z,13.02
2022-12-01T06:25:29.477Z,13.70
2022-12-01T06:27:57.442Z,13.52
2022-12-01T06:30:24.646Z,13.88
2022-12-01T06:32:51.104Z,12.90
2022-12-01T06:35:17.524Z,15.10
2022-12-01T06:37:44.086Z,14.38
2022-12-01T06:40:11.318Z,14.25
2022-12-01T06:42:37.752Z,14.38
2022-12-01T06:45:04.606Z,14.02
2022-12-01T06:47:31.082Z,13.63
2022-12-01T06:49:57.566Z,14.00
2022-12-01T06:52:24.055Z,14.38
2022-12-01T06:54:50.623Z,13.90
2022-12-01T06:57:17.289Z,16.05
2022-12-01T06:59:44.196Z,13.50
2022-12-01T07:02:11.739Z,14.63
2022-12-01T07:04:38.252Z,14.10
2022-12-01T07:07:06.323Z,15.13
2022-12-01T07:09:32.873Z,15.07
2022-12-01T07:11:59.397Z,14.57
2022-12-01T07:14:27.058Z,14.35
2022-12-01T07:16:53.662Z,13.73
2022-12-01T07:19:20.541Z,13.43
2022-12-01T07:21:47.346Z,13.23
2022-12-01T07:24:13.963Z,14.15
2022-12-01T07:26:41.367Z,15.30
2022-12-01T07:29:11.741Z,15.63
2022-12-01T07:31:38.945Z,14.32
2022-12-01T07:34:06.078Z,16.08
2022-12-01T07:36:32.578Z,16.05
2022-12-01T07:38:59.054Z,15.65
2022-12-01T07:41:25.580Z,14.90
2022-12-01T07:43:52.083Z,20.30
2022-12-01T07:46:23.665Z,17.38
2022-12-01T07:48:51.490Z,16.98
2022-12-01T07:51:18.196Z,15.48
2022-12-01T07:53:46.381Z,16.92
2022-12-01T07:56:13.113Z,16.42
2022-12-01T07:58:40.130Z,17.27
2022-12-01T08:01:12.433Z,16.33
2022-12-01T08:03:39.649Z,15.43
2022-12-01T08:06:07.407Z,15.30
2022-12-01T08:08:36.130Z,17.00
2022-12-01T08:11:05.782Z,16.27
2022-12-01T08:13:32.442Z,15.55
2022-12-01T08:15:59.100Z,14.13
2022-12-01T08:18:25.924Z,17.30
2022-12-01T08:20:57.598Z,16.95
2022-12-01T08:23:24.268Z,16.35
2022-12-01T08:25:52.483Z,16.92
2022-12-01T08:28:19.684Z,18.13
2022-12-01T08:30:47.339Z,17.42
2022-12-01T08:33:13.975Z,16.20
2022-12-01T08:35:40.415Z,18.17
2022-12-01T08:38:06.997Z,17.38
2022-12-01T08:40:33.608Z,15.02
2022-12-01T08:43:00.160Z,16.65
2022-12-01T08:45:26.788Z,17.33
2022-12-01T08:47:58.731Z,17.17
2022-12-01T08:50:28.369Z,17.73
2022-12-01T08:52:54.911Z,16.55
2022-12-01T08:55:21.893Z,16.75
2022-12-01T08:57:48.348Z,16.77
2022-12-01T09:00:15.738Z,17.70
2022-12-01T09:02:42.396Z,15.10
2022-12-01T09:05:11.625Z,17.35
2022-12-01T09:10:22.355Z,16.83
2022-12-01T09:13:13.024Z,16.48
2022-12-01T09:15:39.549Z,15.48
2022-12-01T09:18:07.048Z,17.23
2022-12-01T09:20:33.886Z,17.67
2022-12-01T09:23:18.174Z,16.85
2022-12-01T09:25:45.187Z,16.42
2022-12-01T09:28:11.985Z,17.67
2022-12-01T09:33:07.528Z,16.80
2022-12-01T09:35:34.032Z,18.45
2022-12-01T09:38:00.544Z,17.73
2022-12-01T09:40:42.795Z,18.23
2022-12-01T09:43:20.464Z,17.77
2022-12-01T09:45:51.406Z,17.52
2022-12-01T09:48:29.190Z,17.23
2022-12-01T09:50:56.047Z,19.60
2022-12-01T09:53:25.504Z,17.77
2022-12-01T09:55:52.881Z,16.90
2022-12-01T09:58:24.606Z,19.20
2022-12-01T10:00:53.226Z,18.48
2022-12-01T10:03:32.861Z,17.00
2022-12-01T10:06:26.586Z,18.20
2022-12-01T10:09:10.272Z,17.80
2022-12-01T10:11:44.646Z,18.80
2022-12-01T10:14:20.160Z,16.98
2022-12-01T10:17:21.655Z,17.90
2022-12-01T10:20:05.350Z,19.00
2022-12-01T10:22:58.088Z,16.83
2022-12-01T10:25:33.041Z,18.55
2022-12-01T10:28:21.378Z,17.98
2022-12-01T10:30:53.176Z,17.88
2022-12-01T10:33:25.959Z,18.05
2022-12-01T10:35:53.616Z,20.13
2022-12-01T10:38:29.671Z,16.67
2022-12-01T10:40:59.845Z,18.52
2022-12-01T10:43:37.012Z,18.17
2022-12-01T10:46:18.382Z,17.10
2022-12-01T10:49:12.859Z,18.58
2022-12-01T10:51:59.855Z,19.40
2022-12-01T10:54:34.229Z,18.13
2022-12-01T10:57:01.494Z,18.23
2022-12-01T10:59:51.247Z,17.95
2022-12-01T11:02:22.693Z,17.15
2022-12-01T11:05:01.907Z,19.58
2022-12-01T11:07:32.476Z,19.15
2022-12-01T11:10:16.151Z,16.00
2022-12-01T11:12:45.165Z,18.05
2022-12-01T11:15:24.364Z,17.13
2022-12-01T11:18:00.373Z,19.40
2022-12-01T11:23:26.696Z,18.35
2022-12-01T11:26:17.619Z,17.70
2022-12-01T11:28:56.135Z,17.15
2022-12-01T11:31:27.777Z,16.73
2022-12-01T11:33:56.195Z,18.02
2022-12-01T11:36:38.675Z,17.00
2022-12-01T11:39:05.132Z,15.32
2022-12-01T11:41:37.591Z,16.30
2022-12-01T11:44:12.731Z,18.40
2022-12-01T11:46:55.803Z,17.13
2022-12-01T11:49:29.936Z,17.27
2022-12-01T11:51:56.436Z,17.75
2022-12-01T11:54:25.623Z,16.52
2022-12-01T11:57:25.556Z,16.85
2022-12-01T11:59:40.481Z,18.35
2022-12-01T12:02:34.946Z,17.08
2022-12-01T12:05:42.646Z,16.10
2022-12-01T12:08:18.770Z,17.35
2022-12-01T12:10:58.520Z,16.92
2022-12-01T12:13:45.246Z,18.48
2022-12-01T12:16:15.347Z,16.02
2022-12-01T12:18:48.002Z,16.75
2022-12-01T12:21:17.362Z,14.93
2022-12-01T12:23:54.195Z,16.65
2022-12-01T12:26:25.179Z,15.63
2022-12-01T12:29:19.926Z,16.27
2022-12-01T12:32:12.092Z,16.02
2022-12-01T12:35:03.340Z,14.35
2022-12-01T12:37:47.390Z,13.73
2022-12-01T12:40:41.841Z,15.27
2022-12-01T12:43:20.243Z,13.75
2022-12-01T12:46:02.111Z,15.15
2022-12-01T12:49:11.685Z,14.23
2022-12-01T12:51:42.961Z,14.25
2022-12-01T12:54:18.132Z,14.02
2022-12-01T12:56:52.785Z,14.55
2022-12-01T12:59:24.962Z,13.98
2022-12-01T13:02:18.658Z,15.10
2022-12-01T13:05:12.625Z,14.40
2022-12-01T13:07:48.133Z,14.43
2022-12-01T13:10:26.629Z,14.38
2022-12-01T13:12:59.243Z,15.20
2022-12-01T13:15:27.233Z,14.38
2022-12-01T13:17:59.792Z,14.90
2022-12-01T13:20:29.766Z,14.57
2022-12-01T13:22:59.374Z,14.55
2022-12-01T13:25:47.721Z,15.48
2022-12-01T13:28:20.273Z,13.98
2022-12-01T13:31:09.818Z,14.68
2022-12-01T13:33:38.755Z,14.80
2022-12-01T13:36:45.272Z,14.02
2022-12-01T13:39:22.465Z,14.57
2022-12-01T13:41:57.943Z,14.15
2022-12-01T13:44:43.291Z,14.07
2022-12-01T13:47:09.703Z,13.77
2022-12-01T13:49:47.983Z,13.48
2022-12-01T13:52:23.588Z,14.55
2022-12-01T13:55:16.483Z,13.10
2022-12-01T13:58:14.333Z,12.75
2022-12-01T14:03:12.590Z,16.08
2022-12-01T14:05:41.998Z,13.98
2022-12-01T14:08:27.232Z,12.93
2022-12-01T14:11:19.912Z,16.02
2022-12-01T14:13:59.626Z,15.02
2022-12-01T14:16:46.636Z,15.20
2022-12-01T14:19:47.554Z,14.18
2022-12-01T14:22:35.326Z,13.70
2022-12-01T14:25:07.554Z,15.38
2022-12-01T14:27:37.348Z,12.82
2022-12-01T14:30:41.435Z,13.82
2022-12-01T14:33:38.659Z,13.02
2022-12-01T14:36:24.138Z,13.43
2022-12-01T14:38:59.564Z,13.77
2022-12-01T14:41:41.112Z,14.18
2022-12-01T14:44:33.446Z,14.85
2022-12-01T14:47:12.188Z,14.90
2022-12-01T14:50:00.317Z,15.13
2022-12-01T14:52:27.832Z,14.35
2022-12-01T14:54:58.929Z,16.92
2022-12-01T14:57:32.623Z,16.10
2022-12-01T15:00:23.754Z,14.95
2022-12-01T15:02:59.193Z,14.48
2022-12-01T15:05:28.451Z,13.32
2022-12-01T15:08:18.674Z,14.48
2022-12-01T15:10:55.572Z,14.13
2022-12-01T15:13:30.622Z,13.18
2022-12-01T15:18:29.333Z,14.10
2022-12-01T15:21:01.152Z,13.38
2022-12-01T15:23:27.657Z,15.02
2022-12-01T15:25:55.188Z,13.73
2022-12-01T15:28:32.042Z,14.48
2022-12-01T15:31:00.297Z,15.50
2022-12-01T15:33:28.380Z,13.35
2022-12-01T15:35:58.780Z,13.20
2022-12-01T15:38:30.441Z,13.05
2022-12-01T15:41:27.794Z,13.25
2022-12-01T15:43:56.780Z,13.20
2022-12-01T15:46:31.509Z,14.30
2022-12-01T15:49:09.562Z,14.20
2022-12-01T15:51:36.276Z,12.90
2022-12-01T15:54:03.603Z,14.70
2022-12-01T15:56:34.080Z,14.35
2022-12-01T15:59:28.774Z,14.85
2022-12-01T16:01:56.780Z,13.75
2022-12-01T16:04:32.334Z,15.70
2022-12-01T16:07:08.081Z,14.80
2022-12-01T16:09:37.366Z,14.85
2022-12-01T16:14:31.973Z,15.18
2022-12-01T16:16:59.867Z,14.30
2022-12-01T16:19:33.921Z,14.55
2022-12-01T16:22:11.342Z,15.57
2022-12-01T16:24:46.589Z,15.10
2022-12-01T16:29:48.364Z,14.40
2022-12-01T16:34:52.963Z,14.43
2022-12-01T16:37:22.054Z,14.13
2022-12-01T16:39:49.282Z,14.98
2022-12-01T16:42:18.748Z,14.13
2022-12-01T16:44:50.912Z,15.13
2022-12-01T16:47:20.528Z,14.57
2022-12-01T16:49:47.579Z,14.23
2022-12-01T16:55:03.692Z,14.38
2022-12-01T16:57:30.195Z,12.82
2022-12-01T16:59:56.663Z,13.25
2022-12-01T17:02:23.125Z,15.15
2022-12-01T17:04:49.796Z,12.80
2022-12-01T17:07:16.371Z,12.77
2022-12-01T17:09:42.796Z,14.35
2022-12-01T17:12:10.067Z,14.30
2022-12-01T17:14:36.870Z,15.25
2022-12-01T17:17:03.675Z,13.07
2022-12-01T17:19:30.151Z,13.40
2022-12-01T17:21:56.883Z,14.52
2022-12-01T17:24:23.477Z,14.32
2022-12-01T17:26:49.935Z,11.73
2022-12-01T17:29:16.344Z,13.45
2022-12-01T17:31:42.809Z,13.45
2022-12-01T17:34:09.310Z,12.63
2022-12-01T17:36:35.748Z,13.27
2022-12-01T17:39:02.380Z,13.63
2022-12-01T17:41:32.478Z,11.82
2022-12-01T17:44:02.349Z,12.18
2022-12-01T17:46:30.119Z,13.38
2022-12-01T17:48:56.775Z,13.23
2022-12-01T17:51:23.364Z,12.98
2022-12-01T17:53:49.875Z,12.77
2022-12-01T17:56:17.439Z,12.95
2022-12-01T17:58:44.198Z,14.63
2022-12-01T18:01:16.093Z,14.05
2022-12-01T18:03:43.484Z,14.35
2022-12-01T18:06:11.163Z,13.77
2022-12-01T18:08:38.278Z,13.20
2022-12-01T18:11:12.869Z,13.15
2022-12-01T18:13:44.482Z,13.88
2022-12-01T18:16:16.696Z,14.73
2022-12-01T18:18:43.383Z,14.93
2022-12-01T18:21:12.749Z,14.10
2022-12-01T18:26:13.733Z,13.40
2022-12-01T18:28:42.055Z,14.93
2022-12-01T18:31:11.659Z,13.60
2022-12-01T18:33:43.105Z,14.30
2022-12-01T18:36:12.944Z,13.38
2022-12-01T18:38:40.059Z,14.20
2022-12-01T18:41:07.045Z,14.75
2022-12-01T18:43:33.659Z,14.43
2022-12-01T18:46:00.512Z,14.98
2022-12-01T18:48:27.017Z,15.05
2022-12-01T18:50:59.115Z,15.48
2022-12-01T18:53:25.890Z,14.52
2022-12-01T18:55:52.314Z,15.68
2022-12-01T18:58:18.768Z,17.33
2022-12-01T19:00:45.410Z,15.40
2022-12-01T19:03:11.939Z,15.55
2022-12-01T19:05:39.268Z,14.02
2022-12-01T19:08:06.648Z,15.70
2022-12-01T19:10:33.300Z,15.15
2022-12-01T19:12:59.769Z,15.18
2022-12-01T19:15:26.199Z,15.48
2022-12-01T19:17:52.713Z,14.45
2022-12-01T19:20:19.123Z,14.60
2022-12-01T19:22:47.197Z,14.63
2022-12-01T19:25:13.830Z,15.25
2022-12-01T19:27:40.557Z,15.13
2022-12-01T19:30:07.784Z,14.52
2022-12-01T19:32:34.547Z,15.77
2022-12-01T19:35:01.089Z,16.27
2022-12-01T19:37:29.436Z,17.42
2022-12-01T19:39:55.841Z,18.17
2022-12-01T19:42:22.267Z,17.15
2022-12-01T19:44:49.157Z,17.15
2022-12-01T19:47:21.736Z,16.40
2022-12-01T19:49:51.994Z,16.85
2022-12-01T19:52:18.394Z,15.90
2022-12-01T19:54:44.893Z,18.50
2022-12-01T19:57:11.343Z,16.25
2022-12-01T19:59:37.715Z,16.20
2022-12-01T20:02:06.475Z,15.63
2022-12-01T20:04:33.272Z,16.80
2022-12-01T20:06:59.725Z,16.63
2022-12-01T20:09:26.790Z,16.08
2022-12-01T20:11:53.630Z,15.60
2022-12-01T20:14:20.070Z,18.00
2022-12-01T20:16:46.519Z,17.15
2022-12-01T20:19:13.052Z,17.90
2022-12-01T20:22:04.810Z,18.35
2022-12-01T20:24:31.187Z,15.63
2022-12-01T20:26:57.764Z,17.23
2022-12-01T20:29:27.739Z,15.27
2022-12-01T20:31:56.606Z,15.88
2022-12-01T20:34:28.850Z,15.38
2022-12-01T20:36:56.226Z,16.63
2022-12-01T20:39:23.755Z,16.33
2022-12-01T20:41:56.466Z,17.17
2022-12-01T20:44:22.980Z,17.58
2022-12-01T20:46:49.490Z,18.08
2022-12-01T20:49:17.465Z,17.02
2022-12-01T20:51:44.470Z,18.02
2022-12-01T20:54:30.015Z,17.92
2022-12-01T20:56:57.543Z,17.05
2022-12-01T20:59:24.406Z,17.25
2022-12-01T21:01:51.373Z,16.25
2022-12-01T21:04:17.856Z,16.60
2022-12-01T21:06:44.436Z,17.83
2022-12-01T21:09:12.344Z,16.73
2022-12-01T21:12:17.533Z,16.73
2022-12-01T21:15:02.434Z,17.02
2022-12-01T21:17:33.648Z,17.50
2022-12-01T21:20:08.814Z,17.27
2022-12-01T21:22:36.317Z,16.05
2022-12-01T21:25:12.160Z,16.13
2022-12-01T21:27:38.641Z,15.27
2022-12-01T21:30:14.459Z,17.70
2022-12-01T21:32:44.112Z,16.40
2022-12-01T21:35:25.017Z,16.58
2022-12-01T21:37:58.983Z,16.77
2022-12-01T21:40:28.418Z,16.75
2022-12-01T21:42:58.558Z,15.82
2022-12-01T21:45:31.966Z,16.33
2022-12-01T21:48:06.299Z,16.23
2022-12-01T21:50:32.708Z,15.05
2022-12-01T21:52:59.118Z,16.38
2022-12-01T21:55:25.950Z,14.65
2022-12-01T21:57:53.833Z,15.55
2022-12-01T22:00:29.530Z,15.73
2022-12-01T22:03:08.152Z,15.25
2022-12-01T22:05:39.090Z,16.13
2022-12-01T22:08:22.011Z,15.85
2022-12-01T22:10:58.676Z,15.35
2022-12-01T22:13:48.106Z,16.17
2022-12-01T22:16:36.169Z,15.52
2022-12-01T22:19:22.911Z,16.13
2022-12-01T22:22:09.358Z,16.52
2022-12-01T22:24:51.565Z,15.18
2022-12-01T22:27:34.547Z,16.25
2022-12-01T22:30:05.652Z,15.13
2022-12-01T22:32:33.826Z,15.98
2022-12-01T22:35:17.792Z,16.08
2022-12-01T22:37:47.324Z,16.65
2022-12-01T22:40:37.425Z,18.98
2022-12-01T22:43:15.982Z,16.45
2022-12-01T22:45:50.187Z,16.52
2022-12-01T22:48:40.677Z,16.00
2022-12-01T22:51:13.231Z,15.80
2022-12-01T22:53:41.444Z,17.75
2022-12-01T22:56:49.756Z,18.13
2022-12-01T22:59:20.696Z,16.02
2022-12-01T23:01:54.756Z,18.98
2022-12-01T23:04:21.289Z,16.00
2022-12-01T23:06:52.308Z,17.55
2022-12-01T23:09:23.860Z,17.08
2022-12-01T23:11:58.899Z,17.58
2022-12-01T23:14:25.904Z,15.95
2022-12-01T23:16:57.388Z,18.52
2022-12-01T23:19:25.265Z,17.05
2022-12-01T23:21:52.582Z,18.85
2022-12-01T23:24:19.026Z,18.38
2022-12-01T23:26:46.883Z,18.75
2022-12-01T23:29:13.343Z,19.02
2022-12-01T23:31:39.868Z,17.48
2022-12-01T23:34:13.504Z,19.05
2022-12-01T23:36:39.949Z,19.00
2022-12-01T23:39:12.229Z,20.35
2022-12-01T23:41:47.216Z,19.63
2022-12-01T23:44:39.782Z,19.13
2022-12-01T23:47:21.197Z,19.13
2022-12-01T23:49:51.331Z,20.15
2022-12-01T23:52:20.964Z,19.73
2022-12-01T23:54:48.075Z,19.17
2022-12-01T23:57:23.097Z,20.30
2022-12-01T23:59:54.770Z,20.38
